sensor_id;sensor_type;location;lat;lon;timestamp;P1;durP1;ratioP1;P2;durP2;ratioP2
46633;SDS011;32362;49.986;8.026;2023-07-13T00:12:03;2.33;;;0.80;;
46633;SDS011;32362;49.986;8.026;2023-07-13T00:38:44;2.63;;;1.05;;
46633;SDS011;32362;49.986;8.026;2023-07-13T01:05:25;2.43;;;1.00;;
46633;SDS011;32362;49.986;8.026;2023-07-13T01:32:06;3.47;;;0.88;;
46633;SDS011;32362;49.986;8.026;2023-07-13T01:58:48;3.47;;;1.10;;
46633;SDS011;32362;49.986;8.026;2023-07-13T02:25:29;1.05;;;0.90;;
46633;SDS011;32362;49.986;8.026;2023-07-13T02:52:10;1.30;;;0.90;;
46633;SDS011;32362;49.986;8.026;2023-07-13T03:18:50;3.58;;;1.52;;
46633;SDS011;32362;49.986;8.026;2023-07-13T03:45:31;4.68;;;2.13;;
46633;SDS011;32362;49.986;8.026;2023-07-13T04:12:14;1.50;;;1.25;;
46633;SDS011;32362;49.986;8.026;2023-07-13T04:38:56;2.53;;;1.25;;
46633;SDS011;32362;49.986;8.026;2023-07-13T05:05:37;3.03;;;1.30;;
46633;SDS011;32362;49.986;8.026;2023-07-13T05:32:18;1.25;;;0.98;;
46633;SDS011;32362;49.986;8.026;2023-07-13T05:58:59;3.55;;;0.93;;
46633;SDS011;32362;49.986;8.026;2023-07-13T06:25:39;1.97;;;0.83;;
46633;SDS011;32362;49.986;8.026;2023-07-13T06:52:20;0.90;;;0.50;;
46633;SDS011;32362;49.986;8.026;2023-07-13T07:19:01;4.40;;;0.70;;
46633;SDS011;32362;49.986;8.026;2023-07-13T07:45:44;1.45;;;0.43;;
46633;SDS011;32362;49.986;8.026;2023-07-13T08:12:25;3.33;;;0.55;;
46633;SDS011;32362;49.986;8.026;2023-07-13T08:39:06;4.25;;;0.73;;
46633;SDS011;32362;49.986;8.026;2023-07-13T09:05:49;1.20;;;0.20;;
46633;SDS011;32362;49.986;8.026;2023-07-13T09:32:33;3.08;;;0.60;;
46633;SDS011;32362;49.986;8.026;2023-07-13T09:59:21;0.75;;;0.40;;
46633;SDS011;32362;49.986;8.026;2023-07-13T10:26:04;1.60;;;0.70;;
46633;SDS011;32362;49.986;8.026;2023-07-13T10:52:50;1.58;;;0.75;;
46633;SDS011;32362;49.986;8.026;2023-07-13T11:19:38;0.77;;;0.40;;
46633;SDS011;32362;49.986;8.026;2023-07-13T11:46:21;1.90;;;0.65;;
46633;SDS011;32362;49.986;8.026;2023-07-13T12:13:04;4.60;;;0.70;;
46633;SDS011;32362;49.986;8.026;2023-07-13T12:39:47;1.45;;;0.65;;
46633;SDS011;32362;49.986;8.026;2023-07-13T13:06:29;2.60;;;0.70;;
46633;SDS011;32362;49.986;8.026;2023-07-13T13:33:10;0.63;;;0.40;;
46633;SDS011;32362;49.986;8.026;2023-07-13T13:59:52;2.20;;;0.70;;
46633;SDS011;32362;49.986;8.026;2023-07-13T14:26:35;2.05;;;0.52;;
46633;SDS011;32362;49.986;8.026;2023-07-13T14:53:17;1.15;;;0.63;;
46633;SDS011;32362;49.986;8.026;2023-07-13T15:19:58;1.83;;;0.90;;
46633;SDS011;32362;49.986;8.026;2023-07-13T15:46:39;1.50;;;0.38;;
46633;SDS011;32362;49.986;8.026;2023-07-13T16:13:20;2.17;;;0.50;;
46633;SDS011;32362;49.986;8.026;2023-07-13T16:40:01;2.63;;;0.50;;
46633;SDS011;32362;49.986;8.026;2023-07-13T17:06:49;2.13;;;0.50;;
46633;SDS011;32362;49.986;8.026;2023-07-13T17:33:32;1.73;;;0.75;;
46633;SDS011;32362;49.986;8.026;2023-07-13T18:00:17;1.65;;;0.65;;
46633;SDS011;32362;49.986;8.026;2023-07-13T18:27:07;1.10;;;0.50;;
46633;SDS011;32362;49.986;8.026;2023-07-13T18:53:48;1.40;;;0.70;;
46633;SDS011;32362;49.986;8.026;2023-07-13T19:20:28;2.33;;;0.60;;
46633;SDS011;32362;49.986;8.026;2023-07-13T19:47:13;1.65;;;0.60;;
46633;SDS011;32362;49.986;8.026;2023-07-13T20:13:55;1.38;;;0.68;;
46633;SDS011;32362;49.986;8.026;2023-07-13T20:40:36;1.48;;;0.60;;
46633;SDS011;32362;49.986;8.026;2023-07-13T21:07:17;4.67;;;0.87;;
46633;SDS011;32362;49.986;8.026;2023-07-13T21:33:59;3.97;;;0.60;;
46633;SDS011;32362;49.986;8.026;2023-07-13T22:00:47;3.72;;;0.70;;
46633;SDS011;32362;49.986;8.026;2023-07-13T22:27:29;1.40;;;0.70;;
46633;SDS011;32362;49.986;8.026;2023-07-13T22:54:10;4.47;;;1.00;;
46633;SDS011;32362;49.986;8.026;2023-07-13T23:20:52;1.65;;;0.77;;
46633;SDS011;32362;49.986;8.026;2023-07-13T23:47:33;4.25;;;1.15;;
